createdAt,value
2019-02-09T00:01:44.046Z,67.02
2019-02-09T00:04:13.874Z,66.95
2019-02-09T00:06:43.478Z,66.89
2019-02-09T00:09:13.422Z,66.93
2019-02-09T00:11:42.953Z,66.56
2019-02-09T00:14:12.385Z,66.15
2019-02-09T00:16:41.780Z,65.15
2019-02-09T00:19:11.343Z,66.37
2019-02-09T00:21:41.099Z,66.83
2019-02-09T00:24:10.935Z,66.74
2019-02-09T00:26:40.638Z,66.39
2019-02-09T00:29:10.130Z,64.81
2019-02-09T00:31:40.055Z,64.61
2019-02-09T00:34:09.499Z,65.05
2019-02-09T00:36:39.314Z,64.92
2019-02-09T00:39:09.505Z,65.76
2019-02-09T00:41:39.149Z,65.76
2019-02-09T00:44:08.741Z,66.40
2019-02-09T00:46:38.431Z,66.98
2019-02-09T00:49:08.251Z,67.49
2019-02-09T00:51:37.849Z,68.02
2019-02-09T00:54:07.661Z,67.75
2019-02-09T00:56:37.304Z,66.31
2019-02-09T00:59:07.073Z,65.38
2019-02-09T01:01:36.723Z,65.18
2019-02-09T01:04:06.718Z,65.38
2019-02-09T01:06:36.585Z,65.69
2019-02-09T01:09:13.328Z,65.85
2019-02-09T01:11:42.905Z,65.81
2019-02-09T01:14:12.800Z,65.34
2019-02-09T01:16:42.398Z,65.28
2019-02-09T01:19:11.970Z,65.07
2019-02-09T01:21:41.559Z,65.12
2019-02-09T01:24:11.113Z,64.84
2019-02-09T01:26:40.534Z,65.54
2019-02-09T01:29:10.346Z,66.37
2019-02-09T01:31:39.841Z,66.70
2019-02-09T01:34:09.555Z,66.54
2019-02-09T01:36:38.955Z,66.49
2019-02-09T01:39:09.109Z,66.76
2019-02-09T01:41:39.055Z,66.74
2019-02-09T01:44:08.907Z,65.88
2019-02-09T01:46:38.610Z,65.28
2019-02-09T01:49:08.350Z,66.08
2019-02-09T01:51:38.032Z,66.55
2019-02-09T01:54:07.517Z,66.93
2019-02-09T01:56:37.410Z,67.47
2019-02-09T01:59:06.847Z,67.69
2019-02-09T02:01:36.666Z,68.11
2019-02-09T02:04:06.208Z,68.32
2019-02-09T02:06:35.949Z,67.84
2019-02-09T02:09:08.181Z,66.89
2019-02-09T02:11:37.675Z,67.35
2019-02-09T02:14:07.437Z,67.79
2019-02-09T02:16:37.298Z,68.35
2019-02-09T02:19:07.292Z,67.10
2019-02-09T02:21:37.102Z,67.33
2019-02-09T02:24:06.871Z,66.07
2019-02-09T02:26:36.786Z,66.54
2019-02-09T02:29:06.633Z,66.41
2019-02-09T02:31:36.270Z,66.95
2019-02-09T02:34:06.056Z,67.13
2019-02-09T02:36:35.686Z,67.23
2019-02-09T02:39:09.563Z,66.91
2019-02-09T02:41:39.053Z,66.94
2019-02-09T02:44:08.782Z,66.79
2019-02-09T02:46:38.486Z,66.27
2019-02-09T02:49:08.266Z,66.41
2019-02-09T02:51:38.236Z,67.56
2019-02-09T02:54:08.022Z,67.40
2019-02-09T02:56:37.413Z,67.30
2019-02-09T02:59:07.245Z,67.81
2019-02-09T03:01:37.164Z,68.01
2019-02-09T03:04:06.940Z,67.45
2019-02-09T03:06:36.329Z,67.71
2019-02-09T03:09:08.742Z,68.13
2019-02-09T03:11:38.434Z,68.34
2019-02-09T03:14:08.576Z,68.86
2019-02-09T03:16:38.057Z,69.14
2019-02-09T03:19:07.783Z,69.66
2019-02-09T03:21:37.392Z,69.87
2019-02-09T03:24:07.213Z,70.00
2019-02-09T03:26:37.123Z,69.99
2019-02-09T03:29:06.821Z,68.96
2019-02-09T03:31:36.528Z,69.12
2019-02-09T03:34:06.076Z,69.69
2019-02-09T03:36:35.563Z,70.26
2019-02-09T03:39:08.048Z,70.75
2019-02-09T03:41:37.618Z,71.12
2019-02-09T03:44:07.444Z,71.54
2019-02-09T03:46:37.278Z,71.97
2019-02-09T03:49:07.052Z,72.40
2019-02-09T03:51:36.866Z,72.94
2019-02-09T03:54:06.280Z,72.72
2019-02-09T03:56:35.964Z,72.60
2019-02-09T03:59:05.865Z,72.96
2019-02-09T04:01:35.762Z,72.88
2019-02-09T04:04:05.541Z,72.88
2019-02-09T04:06:35.032Z,72.66
2019-02-09T04:09:07.455Z,72.20
2019-02-09T04:11:37.279Z,72.38
2019-02-09T04:14:06.701Z,72.66
2019-02-09T04:16:36.451Z,72.75
2019-02-09T04:19:05.890Z,73.08
2019-02-09T04:21:35.637Z,73.55
2019-02-09T04:24:05.529Z,73.89
2019-02-09T04:26:35.154Z,74.22
2019-02-09T04:29:04.837Z,74.19
2019-02-09T04:31:34.422Z,74.11
2019-02-09T04:34:03.852Z,73.87
2019-02-09T04:36:33.249Z,73.24
2019-02-09T04:39:03.106Z,72.85
2019-02-09T04:41:32.850Z,72.88
2019-02-09T04:44:02.286Z,73.03
2019-02-09T04:46:31.670Z,73.51
2019-02-09T04:49:01.336Z,73.87
2019-02-09T04:51:30.816Z,74.19
2019-02-09T04:54:00.251Z,74.58
2019-02-09T04:56:29.646Z,74.83
2019-02-09T04:58:59.293Z,75.17
2019-02-09T05:01:29.142Z,75.24
2019-02-09T05:03:58.955Z,75.40
2019-02-09T05:06:28.661Z,75.52
2019-02-09T05:08:58.418Z,75.58
2019-02-09T05:11:27.941Z,75.47
2019-02-09T05:13:57.374Z,75.53
2019-02-09T05:16:27.109Z,75.36
2019-02-09T05:18:56.888Z,75.47
2019-02-09T05:21:26.631Z,75.26
2019-02-09T05:23:56.423Z,75.60
2019-02-09T05:26:25.927Z,75.43
2019-02-09T05:28:55.627Z,75.21
2019-02-09T05:31:25.023Z,75.23
2019-02-09T05:33:54.872Z,74.80
2019-02-09T05:36:24.754Z,73.74
2019-02-09T05:38:54.209Z,73.19
2019-02-09T05:41:23.730Z,73.23
2019-02-09T05:43:53.384Z,72.96
2019-02-09T05:46:23.195Z,73.05
2019-02-09T05:48:52.927Z,72.91
2019-02-09T05:51:22.370Z,72.50
2019-02-09T05:53:52.103Z,72.64
2019-02-09T05:56:21.706Z,73.06
2019-02-09T05:58:51.475Z,73.35
2019-02-09T06:01:20.962Z,73.60
2019-02-09T06:03:50.398Z,73.85
2019-02-09T06:06:19.847Z,73.67
2019-02-09T06:08:49.450Z,73.57
2019-02-09T06:11:19.349Z,73.26
2019-02-09T06:13:48.941Z,73.46
2019-02-09T06:16:18.532Z,73.72
2019-02-09T06:18:48.421Z,73.31
2019-02-09T06:21:18.287Z,72.94
2019-02-09T06:23:47.976Z,72.92
2019-02-09T06:26:17.712Z,73.09
2019-02-09T06:28:47.513Z,73.14
2019-02-09T06:31:17.361Z,72.91
2019-02-09T06:33:47.068Z,72.98
2019-02-09T06:36:16.548Z,73.03
2019-02-09T06:38:46.204Z,72.77
2019-02-09T06:41:15.858Z,72.49
2019-02-09T06:43:45.583Z,71.78
2019-02-09T06:46:16.361Z,71.95
2019-02-09T06:48:45.797Z,72.36
2019-02-09T06:51:15.501Z,71.40
2019-02-09T06:53:44.981Z,71.08
2019-02-09T06:56:14.468Z,70.45
2019-02-09T06:58:43.928Z,70.78
2019-02-09T07:01:13.304Z,71.61
2019-02-09T07:03:43.040Z,72.07
2019-02-09T07:06:12.676Z,71.95
2019-02-09T07:08:42.228Z,71.89
2019-02-09T07:11:11.967Z,71.74
2019-02-09T07:13:41.644Z,71.95
2019-02-09T07:16:11.276Z,72.28
2019-02-09T07:18:41.040Z,71.58
2019-02-09T07:21:10.858Z,71.48
2019-02-09T07:23:40.253Z,71.25
2019-02-09T07:26:09.635Z,70.89
2019-02-09T07:28:39.129Z,71.04
2019-02-09T07:31:08.925Z,70.47
2019-02-09T07:33:38.322Z,70.20
2019-02-09T07:36:07.822Z,69.34
2019-02-09T07:38:37.787Z,69.30
2019-02-09T07:41:07.565Z,69.43
2019-02-09T07:43:37.150Z,69.04
2019-02-09T07:46:06.761Z,68.97
2019-02-09T07:48:36.402Z,68.62
2019-02-09T07:51:06.265Z,68.38
2019-02-09T07:53:35.759Z,68.36
2019-02-09T07:56:06.227Z,67.90
2019-02-09T07:58:35.605Z,67.67
2019-02-09T08:01:05.930Z,67.87
2019-02-09T08:03:35.765Z,67.39
2019-02-09T08:06:05.678Z,67.10
2019-02-09T08:08:35.435Z,66.92
2019-02-09T08:11:09.301Z,65.99
2019-02-09T08:13:36.313Z,65.91
2019-02-09T08:16:05.992Z,65.42
2019-02-09T08:18:35.739Z,65.32
2019-02-09T08:21:05.830Z,64.68
2019-02-09T08:23:35.347Z,64.33
2019-02-09T08:26:05.138Z,64.99
2019-02-09T08:28:34.619Z,65.04
2019-02-09T08:31:04.793Z,64.49
2019-02-09T08:33:34.389Z,64.02
2019-02-09T08:36:03.809Z,63.41
2019-02-09T08:38:33.440Z,63.11
2019-02-09T08:41:03.117Z,62.81
2019-02-09T08:43:32.519Z,62.66
2019-02-09T08:46:01.994Z,62.03
2019-02-09T08:48:31.936Z,61.50
2019-02-09T08:51:05.570Z,61.24
2019-02-09T08:53:34.974Z,61.07
2019-02-09T08:56:04.826Z,60.66
2019-02-09T08:58:34.604Z,60.28
2019-02-09T09:01:05.172Z,59.82
2019-02-09T09:03:34.793Z,59.56
2019-02-09T09:06:05.016Z,59.16
2019-02-09T09:08:34.738Z,59.12
2019-02-09T09:11:04.135Z,57.93
2019-02-09T09:13:34.107Z,58.07
2019-02-09T09:16:08.317Z,57.86
2019-02-09T09:18:37.835Z,56.88
2019-02-09T09:21:07.776Z,56.05
2019-02-09T09:23:37.283Z,55.87
2019-02-09T09:26:06.867Z,55.07
2019-02-09T09:28:36.604Z,54.46
2019-02-09T09:31:06.798Z,54.63
2019-02-09T09:33:36.774Z,53.87
2019-02-09T09:36:07.003Z,55.24
2019-02-09T09:38:36.753Z,55.67
2019-02-09T09:41:06.571Z,55.56
2019-02-09T09:43:36.406Z,55.58
2019-02-09T09:46:07.985Z,55.74
2019-02-09T09:48:37.380Z,55.48
2019-02-09T09:51:09.615Z,54.33
2019-02-09T09:53:39.122Z,54.12
2019-02-09T09:56:08.779Z,54.62
2019-02-09T09:58:40.043Z,54.29
2019-02-09T10:01:09.422Z,54.20
2019-02-09T10:03:39.472Z,53.25
2019-02-09T10:06:09.405Z,52.84
2019-02-09T10:08:40.154Z,52.84
2019-02-09T10:11:09.552Z,51.91
2019-02-09T10:13:39.320Z,51.40
2019-02-09T10:16:09.230Z,52.11
2019-02-09T10:18:38.755Z,50.57
2019-02-09T10:21:08.480Z,51.74
2019-02-09T10:23:38.259Z,51.81
2019-02-09T10:26:08.176Z,52.31
2019-02-09T10:28:37.560Z,52.21
2019-02-09T10:31:07.065Z,51.86
2019-02-09T10:33:36.463Z,52.18
2019-02-09T10:36:06.149Z,51.72
2019-02-09T10:38:35.886Z,51.68
2019-02-09T10:41:05.758Z,51.35
2019-02-09T10:43:35.342Z,51.28
2019-02-09T10:46:05.721Z,51.61
2019-02-09T10:48:35.643Z,49.57
2019-02-09T10:51:05.615Z,50.37
2019-02-09T10:53:35.020Z,50.74
2019-02-09T10:56:04.732Z,51.65
2019-02-09T10:58:34.363Z,51.50
2019-02-09T11:01:25.446Z,51.46
2019-02-09T11:03:55.005Z,51.19
2019-02-09T11:06:24.608Z,51.87
2019-02-09T11:08:54.323Z,51.76
2019-02-09T11:11:24.149Z,51.02
2019-02-09T11:13:54.031Z,51.45
2019-02-09T11:16:23.947Z,51.37
2019-02-09T11:18:53.470Z,50.77
2019-02-09T11:21:23.837Z,50.19
2019-02-09T11:23:53.641Z,49.66
2019-02-09T11:26:23.178Z,50.67
2019-02-09T11:28:52.732Z,50.78
2019-02-09T11:31:22.358Z,50.56
2019-02-09T11:33:52.108Z,49.00
2019-02-09T11:36:21.841Z,50.97
2019-02-09T11:38:51.242Z,51.95
2019-02-09T11:41:21.028Z,51.61
2019-02-09T11:43:50.642Z,51.90
2019-02-09T11:46:20.558Z,51.66
2019-02-09T11:48:50.254Z,51.94
2019-02-09T11:51:20.028Z,51.00
2019-02-09T11:53:49.421Z,51.10
2019-02-09T11:56:21.269Z,50.95
2019-02-09T11:58:50.749Z,50.53
2019-02-09T12:01:20.399Z,51.72
2019-02-09T12:03:50.378Z,53.21
2019-02-09T12:06:20.106Z,53.41
2019-02-09T12:08:49.589Z,53.14
2019-02-09T12:11:19.282Z,53.72
2019-02-09T12:13:55.154Z,53.76
2019-02-09T12:16:20.084Z,54.05
2019-02-09T12:18:49.577Z,53.17
2019-02-09T12:21:19.106Z,52.54
2019-02-09T12:23:48.666Z,52.50
2019-02-09T12:26:20.356Z,52.54
2019-02-09T12:28:49.890Z,52.63
2019-02-09T12:31:19.559Z,50.18
2019-02-09T12:33:49.216Z,49.75
